Time;durP1;ratioP1;P1;durP2;ratioP2;P2;SDS_P1;SDS_P2;PMS_P1;PMS_P2;Temp;Humidity;BMP_temperature;BMP_pressure;BME280_temperature;BME280_humidity;BME280_pressure;Samples;Min_cycle;Max_cycle;Signal;HPM_P1;HPM_P2
2022/01/19 00:01:14;;;;;;;287.97;126.43;;;;;;;;;;5074443;28;20428;-87
2022/01/19 00:03:40;;;;;;;222.17;110.10;;;;;;;;;;5078223;28;20479;-87
2022/01/19 00:06:06;;;;;;;268.40;120.63;;;;;;;;;;5075514;28;20940;-87
2022/01/19 00:08:32;;;;;;;281.47;119.70;;;;;;;;;;5073579;28;20429;-87
2022/01/19 00:10:59;;;;;;;248.13;112.27;;;;;;;;;;5073159;28;21174;-87
2022/01/19 00:13:25;;;;;;;265.93;117.77;;;;;;;;;;5073702;28;20436;-87
2022/01/19 00:15:51;;;;;;;235.93;113.90;;;;;;;;;;5075428;28;20506;-87
2022/01/19 00:18:18;;;;;;;238.33;113.83;;;;;;;;;;5075850;28;20466;-87
2022/01/19 00:20:45;;;;;;;242.20;110.23;;;;;;;;;;5073079;28;20444;-87
2022/01/19 00:23:12;;;;;;;265.07;118.10;;;;;;;;;;5074190;28;20452;-87
2022/01/19 00:25:39;;;;;;;250.97;116.57;;;;;;;;;;5071574;28;20496;-87
2022/01/19 00:28:05;;;;;;;220.87;107.13;;;;;;;;;;5072858;28;21106;-87
2022/01/19 00:30:31;;;;;;;230.00;109.20;;;;;;;;;;5073571;28;20424;-87
2022/01/19 00:32:57;;;;;;;238.30;113.43;;;;;;;;;;5074085;28;21045;-87
2022/01/19 00:35:23;;;;;;;217.33;105.60;;;;;;;;;;5071075;28;20460;-87
2022/01/19 00:37:49;;;;;;;233.87;109.73;;;;;;;;;;5071462;28;20413;-87
2022/01/19 00:40:16;;;;;;;207.37;104.57;;;;;;;;;;5074830;28;20566;-87
2022/01/19 00:42:43;;;;;;;210.23;107.30;;;;;;;;;;5074171;28;20499;-87
2022/01/19 00:45:09;;;;;;;223.30;108.03;;;;;;;;;;5076371;28;20440;-87
2022/01/19 00:47:35;;;;;;;193.90;98.47;;;;;;;;;;5076133;28;20667;-86
2022/01/19 00:50:02;;;;;;;230.83;109.37;;;;;;;;;;5078894;28;21262;-87
2022/01/19 00:52:28;;;;;;;205.83;103.17;;;;;;;;;;5079030;28;20431;-87
2022/01/19 00:54:54;;;;;;;189.97;95.00;;;;;;;;;;5077536;28;20491;-87
2022/01/19 00:57:20;;;;;;;201.63;103.30;;;;;;;;;;5079355;28;20433;-87
2022/01/19 00:59:46;;;;;;;202.47;101.03;;;;;;;;;;5080270;28;21253;-87
2022/01/19 01:02:12;;;;;;;184.83;95.67;;;;;;;;;;5079426;28;20422;-87
2022/01/19 01:04:38;;;;;;;199.27;98.27;;;;;;;;;;5078466;28;20428;-87
2022/01/19 01:07:04;;;;;;;182.13;93.87;;;;;;;;;;5080426;28;20487;-87
2022/01/19 01:09:30;;;;;;;190.87;93.70;;;;;;;;;;5074318;28;21460;-87
2022/01/19 01:12:02;;;;;;;189.10;94.77;;;;;;;;;;5078821;28;20428;-86
2022/01/19 01:20:02;;;;;;;179.60;90.00;;;;;;;;;;5077176;28;20474;-87
2022/01/19 01:22:29;;;;;;;176.90;91.47;;;;;;;;;;5078389;28;20422;-87
2022/01/19 01:24:55;;;;;;;188.73;92.50;;;;;;;;;;5075797;28;20531;-88
2022/01/19 01:27:21;;;;;;;200.03;96.87;;;;;;;;;;5078656;28;20515;-87
2022/01/19 01:29:47;;;;;;;181.67;94.23;;;;;;;;;;5075573;28;20490;-87
2022/01/19 01:32:13;;;;;;;178.13;89.27;;;;;;;;;;5077280;28;20458;-87
2022/01/19 01:34:39;;;;;;;191.47;96.07;;;;;;;;;;5070763;28;20502;-87
2022/01/19 01:37:06;;;;;;;189.60;92.53;;;;;;;;;;5079306;28;20423;-87
2022/01/19 01:39:32;;;;;;;184.03;90.60;;;;;;;;;;5080440;28;20909;-87
2022/01/19 01:42:01;;;;;;;191.67;94.63;;;;;;;;;;5076780;28;21124;-87
2022/01/19 01:44:34;;;;;;;176.93;88.17;;;;;;;;;;5079709;28;21320;-87
2022/01/19 01:47:01;;;;;;;179.17;90.57;;;;;;;;;;5075120;28;21072;-87
2022/01/19 01:49:41;;;;;;;178.47;90.03;;;;;;;;;;5078176;28;20429;-87
2022/01/19 01:54:52;;;;;;;197.80;94.73;;;;;;;;;;5077463;28;20448;-87
2022/01/19 01:57:19;;;;;;;178.10;87.33;;;;;;;;;;5081141;28;20429;-87
2022/01/19 01:59:45;;;;;;;185.83;87.87;;;;;;;;;;5078640;28;20421;-87
2022/01/19 02:02:11;;;;;;;189.00;95.03;;;;;;;;;;5076681;28;20502;-87
2022/01/19 02:04:40;;;;;;;190.20;92.20;;;;;;;;;;5078915;28;20424;-87
2022/01/19 02:09:40;;;;;;;184.37;89.60;;;;;;;;;;5074997;28;20430;-86
2022/01/19 02:23:25;;;;;;;185.03;88.00;;;;;;;;;;5075241;28;20509;-87
2022/01/19 02:25:56;;;;;;;187.40;89.53;;;;;;;;;;5068280;28;20575;-87
2022/01/19 02:41:49;;;;;;;187.13;87.50;;;;;;;;;;5074199;28;20478;-87
2022/01/19 02:44:30;;;;;;;192.77;89.60;;;;;;;;;;5077917;28;20419;-87
2022/01/19 02:49:41;;;;;;;199.97;90.33;;;;;;;;;;5074883;28;20475;-87
2022/01/19 02:52:07;;;;;;;199.63;90.83;;;;;;;;;;5079355;28;20440;-86
2022/01/19 02:54:34;;;;;;;194.97;91.47;;;;;;;;;;5077840;28;20452;-87
2022/01/19 02:57:02;;;;;;;212.83;95.27;;;;;;;;;;5078139;28;20502;-87
2022/01/19 02:59:43;;;;;;;190.17;87.63;;;;;;;;;;5070453;28;20417;-87
2022/01/19 03:10:23;;;;;;;171.87;80.97;;;;;;;;;;5071433;28;20943;-87
2022/01/19 03:12:50;;;;;;;171.97;80.60;;;;;;;;;;5072574;28;20922;-87
2022/01/19 03:15:16;;;;;;;163.80;78.90;;;;;;;;;;5071097;28;20480;-87
2022/01/19 03:17:42;;;;;;;175.17;81.20;;;;;;;;;;5075590;28;20425;-87
2022/01/19 03:20:09;;;;;;;165.30;76.47;;;;;;;;;;5076652;28;20420;-88
2022/01/19 03:22:56;;;;;;;152.13;71.63;;;;;;;;;;5074079;28;20448;-87
2022/01/19 03:25:22;;;;;;;140.07;67.50;;;;;;;;;;5072300;28;20421;-87
2022/01/19 03:27:48;;;;;;;147.37;69.40;;;;;;;;;;5076571;28;20421;-87
2022/01/19 03:30:15;;;;;;;145.13;67.57;;;;;;;;;;5073657;28;20405;-87
2022/01/19 03:32:41;;;;;;;138.50;67.20;;;;;;;;;;5074410;28;20429;-87
2022/01/19 03:35:08;;;;;;;148.30;67.83;;;;;;;;;;5073871;28;20486;-87
2022/01/19 03:37:34;;;;;;;137.57;65.17;;;;;;;;;;5076733;28;20473;-87
2022/01/19 03:40:01;;;;;;;138.87;66.57;;;;;;;;;;5072939;28;21053;-87
2022/01/19 03:42:27;;;;;;;149.17;66.60;;;;;;;;;;5080926;28;20412;-87
2022/01/19 03:44:53;;;;;;;139.13;63.47;;;;;;;;;;5078661;28;20455;-87
2022/01/19 03:47:19;;;;;;;139.90;65.43;;;;;;;;;;5072159;28;20428;-87
2022/01/19 03:49:45;;;;;;;139.70;64.53;;;;;;;;;;5068787;28;20444;-87
2022/01/19 03:52:15;;;;;;;145.10;70.10;;;;;;;;;;5075328;28;20479;-87
2022/01/19 03:54:46;;;;;;;148.57;67.67;;;;;;;;;;5073617;28;20480;-87
2022/01/19 03:57:12;;;;;;;145.07;66.53;;;;;;;;;;5068315;28;20447;-87
2022/01/19 03:59:39;;;;;;;148.57;69.90;;;;;;;;;;5075416;28;20432;-87
2022/01/19 04:02:05;;;;;;;140.37;64.67;;;;;;;;;;5074465;28;21094;-87
2022/01/19 04:04:47;;;;;;;132.30;64.47;;;;;;;;;;5072712;28;20444;-87
2022/01/19 04:07:14;;;;;;;139.40;65.63;;;;;;;;;;5073007;28;20433;-87
2022/01/19 04:09:42;;;;;;;133.03;62.67;;;;;;;;;;5073861;28;20427;-87
2022/01/19 04:12:10;;;;;;;125.87;59.40;;;;;;;;;;5070745;28;20516;-87
2022/01/19 04:14:37;;;;;;;130.60;61.43;;;;;;;;;;5075785;28;20445;-87
2022/01/19 04:17:03;;;;;;;131.50;60.47;;;;;;;;;;5074068;28;20793;-87
2022/01/19 04:21:57;;;;;;;131.13;60.80;;;;;;;;;;5071487;28;20436;-87
2022/01/19 04:24:23;;;;;;;139.40;61.93;;;;;;;;;;5073507;28;21121;-87
2022/01/19 04:29:35;;;;;;;132.63;58.57;;;;;;;;;;5072990;28;20494;-87
2022/01/19 04:32:09;;;;;;;124.00;59.07;;;;;;;;;;5071100;28;20464;-87
2022/01/19 04:34:37;;;;;;;139.40;60.30;;;;;;;;;;5071828;28;20453;-87
2022/01/19 05:02:39;;;;;;;126.33;59.47;;;;;;;;;;5074551;28;20415;-87
2022/01/19 05:06:51;;;;;;;129.33;59.50;;;;;;;;;;5071021;28;20412;-87
2022/01/19 05:09:52;;;;;;;126.93;58.97;;;;;;;;;;5071691;28;20425;-87
2022/01/19 05:14:56;;;;;;;132.57;61.37;;;;;;;;;;5080983;28;20459;-88
2022/01/19 05:17:24;;;;;;;137.93;62.37;;;;;;;;;;5096207;28;20421;-88
2022/01/19 05:19:50;;;;;;;137.37;62.00;;;;;;;;;;5077859;28;21233;-87
2022/01/19 05:22:16;;;;;;;150.60;67.07;;;;;;;;;;5069372;28;20464;-87
2022/01/19 05:24:42;;;;;;;144.13;64.07;;;;;;;;;;5074317;28;20425;-87
2022/01/19 05:27:08;;;;;;;141.67;65.73;;;;;;;;;;5070956;28;20428;-87
2022/01/19 05:29:34;;;;;;;135.53;62.80;;;;;;;;;;5077458;28;20442;-87
2022/01/19 05:32:00;;;;;;;138.50;63.00;;;;;;;;;;5075408;28;20433;-87
2022/01/19 05:34:26;;;;;;;139.73;61.37;;;;;;;;;;5073537;28;20461;-87
2022/01/19 05:36:52;;;;;;;145.53;64.87;;;;;;;;;;5072488;28;21011;-87
2022/01/19 05:39:18;;;;;;;128.30;59.50;;;;;;;;;;5076258;28;20549;-87
2022/01/19 05:41:44;;;;;;;133.67;60.77;;;;;;;;;;5072509;28;20418;-87
2022/01/19 05:44:12;;;;;;;138.50;61.80;;;;;;;;;;5078312;28;21316;-87
2022/01/19 05:46:38;;;;;;;133.37;61.60;;;;;;;;;;5077273;28;20433;-86
2022/01/19 05:49:04;;;;;;;136.43;60.83;;;;;;;;;;5075386;28;20431;-86
2022/01/19 05:51:30;;;;;;;142.47;63.57;;;;;;;;;;5077473;28;20413;-86
2022/01/19 05:53:57;;;;;;;134.93;62.10;;;;;;;;;;5079039;28;20474;-86
2022/01/19 05:56:23;;;;;;;138.37;59.27;;;;;;;;;;5078073;28;21347;-87
2022/01/19 05:58:49;;;;;;;149.07;63.63;;;;;;;;;;5079066;28;20453;-86
2022/01/19 06:01:15;;;;;;;137.37;62.00;;;;;;;;;;5075604;28;20989;-87
2022/01/19 06:03:41;;;;;;;139.47;62.13;;;;;;;;;;5073228;28;20417;-86
2022/01/19 06:06:07;;;;;;;141.80;62.50;;;;;;;;;;5077953;28;20429;-86
2022/01/19 06:08:42;;;;;;;147.90;65.20;;;;;;;;;;5078452;28;20440;-86
2022/01/19 06:11:08;;;;;;;138.67;62.77;;;;;;;;;;5080625;28;20429;-86
2022/01/19 06:13:35;;;;;;;137.77;62.57;;;;;;;;;;5079156;28;20440;-86
2022/01/19 06:16:01;;;;;;;144.33;62.23;;;;;;;;;;5070424;28;20448;-86
2022/01/19 06:18:27;;;;;;;148.37;62.97;;;;;;;;;;5075082;28;20424;-86
2022/01/19 06:20:53;;;;;;;147.47;63.23;;;;;;;;;;5079115;28;20443;-86
2022/01/19 06:23:19;;;;;;;145.70;65.50;;;;;;;;;;5076315;28;20670;-86
2022/01/19 06:25:46;;;;;;;138.47;63.50;;;;;;;;;;5075801;28;20434;-86
2022/01/19 06:28:13;;;;;;;156.67;65.43;;;;;;;;;;5078462;28;20429;-86
2022/01/19 06:30:39;;;;;;;140.87;61.53;;;;;;;;;;5077719;28;20460;-86
2022/01/19 06:33:06;;;;;;;140.53;62.97;;;;;;;;;;5075212;28;20551;-86
2022/01/19 06:35:32;;;;;;;134.70;60.90;;;;;;;;;;5074738;28;20479;-86
2022/01/19 06:37:58;;;;;;;135.60;60.50;;;;;;;;;;5080580;28;20428;-87
2022/01/19 06:40:27;;;;;;;133.60;59.63;;;;;;;;;;5077837;28;21555;-86
2022/01/19 06:42:54;;;;;;;126.07;59.73;;;;;;;;;;5075391;28;20424;-86
2022/01/19 06:45:20;;;;;;;137.90;61.77;;;;;;;;;;5072302;28;20551;-85
2022/01/19 06:47:46;;;;;;;133.70;56.40;;;;;;;;;;5076807;28;20428;-86
2022/01/19 06:50:13;;;;;;;136.40;60.60;;;;;;;;;;5077870;28;20418;-86
2022/01/19 06:52:39;;;;;;;128.93;60.93;;;;;;;;;;5070703;28;20455;-87
2022/01/19 06:55:06;;;;;;;129.70;58.50;;;;;;;;;;5077737;28;21139;-86
2022/01/19 06:57:33;;;;;;;130.23;58.73;;;;;;;;;;5076189;28;20459;-86
2022/01/19 06:59:59;;;;;;;127.07;58.03;;;;;;;;;;5072158;28;20432;-87
2022/01/19 07:02:28;;;;;;;126.97;57.43;;;;;;;;;;5063958;28;20417;-87
2022/01/19 07:04:54;;;;;;;119.77;56.23;;;;;;;;;;5075378;28;21340;-86
2022/01/19 07:07:20;;;;;;;118.30;55.93;;;;;;;;;;5077646;28;20433;-86
2022/01/19 07:09:47;;;;;;;121.17;55.53;;;;;;;;;;5073083;28;21585;-86
2022/01/19 07:12:13;;;;;;;133.53;58.63;;;;;;;;;;5074618;28;20480;-86
2022/01/19 07:14:39;;;;;;;129.50;59.20;;;;;;;;;;5075993;28;20453;-86
2022/01/19 07:17:05;;;;;;;118.43;56.47;;;;;;;;;;5070243;28;20443;-86
2022/01/19 07:19:31;;;;;;;122.83;57.33;;;;;;;;;;5078446;28;20408;-86
2022/01/19 07:21:58;;;;;;;117.97;54.87;;;;;;;;;;5074720;28;20436;-87
2022/01/19 07:24:24;;;;;;;127.67;56.63;;;;;;;;;;5070955;28;20417;-86
2022/01/19 07:26:50;;;;;;;125.87;56.07;;;;;;;;;;5069059;28;20429;-86
2022/01/19 07:29:16;;;;;;;132.57;57.97;;;;;;;;;;5069913;28;20421;-87
2022/01/19 07:31:42;;;;;;;131.87;57.87;;;;;;;;;;5071479;28;20444;-86
2022/01/19 07:34:09;;;;;;;131.93;57.33;;;;;;;;;;5068991;28;20507;-86
2022/01/19 07:36:35;;;;;;;123.20;54.97;;;;;;;;;;5066794;28;20449;-86
2022/01/19 07:39:01;;;;;;;122.43;53.60;;;;;;;;;;5070191;28;20495;-85
2022/01/19 07:41:28;;;;;;;118.23;52.93;;;;;;;;;;5075946;28;20429;-85
2022/01/19 07:43:54;;;;;;;116.60;52.53;;;;;;;;;;5078998;28;20401;-85
2022/01/19 07:46:20;;;;;;;117.63;52.23;;;;;;;;;;5073656;28;20467;-85
2022/01/19 07:48:46;;;;;;;106.83;49.97;;;;;;;;;;5071946;28;20460;-86
2022/01/19 07:51:12;;;;;;;111.33;50.67;;;;;;;;;;5066933;28;20805;-85
2022/01/19 07:53:38;;;;;;;117.27;52.37;;;;;;;;;;5074008;28;20422;-85
2022/01/19 07:56:05;;;;;;;105.83;48.17;;;;;;;;;;5072435;28;20551;-85
2022/01/19 07:58:31;;;;;;;103.60;46.80;;;;;;;;;;5067034;28;20408;-85
2022/01/19 08:00:57;;;;;;;96.40;45.83;;;;;;;;;;5072259;28;20468;-85
2022/01/19 08:03:23;;;;;;;99.60;45.57;;;;;;;;;;5065713;28;20424;-85
2022/01/19 08:05:49;;;;;;;99.90;46.90;;;;;;;;;;5074376;28;20483;-85
2022/01/19 08:08:16;;;;;;;104.57;47.93;;;;;;;;;;5067935;28;20501;-85
2022/01/19 08:10:42;;;;;;;111.80;46.90;;;;;;;;;;5068360;28;20421;-86
2022/01/19 08:13:14;;;;;;;93.77;43.67;;;;;;;;;;5067740;28;20486;-86
2022/01/19 08:15:40;;;;;;;88.33;42.80;;;;;;;;;;5074438;28;20459;-85
2022/01/19 08:18:06;;;;;;;85.37;40.80;;;;;;;;;;5072877;28;20435;-85
2022/01/19 08:20:33;;;;;;;92.50;42.40;;;;;;;;;;5075021;28;21291;-85
2022/01/19 08:22:59;;;;;;;88.47;41.77;;;;;;;;;;5074424;28;20429;-85
2022/01/19 08:25:25;;;;;;;110.33;48.67;;;;;;;;;;5074779;28;20451;-85
2022/01/19 08:27:51;;;;;;;91.10;42.90;;;;;;;;;;5071505;28;20432;-85
2022/01/19 08:30:18;;;;;;;93.90;42.50;;;;;;;;;;5067573;28;20419;-85
2022/01/19 08:32:44;;;;;;;86.43;42.03;;;;;;;;;;5075743;28;21153;-87
2022/01/19 08:35:10;;;;;;;91.27;41.43;;;;;;;;;;5068861;28;20557;-86
2022/01/19 08:37:36;;;;;;;99.93;46.50;;;;;;;;;;5074593;28;20427;-86
2022/01/19 08:40:04;;;;;;;97.23;46.27;;;;;;;;;;5069548;28;20420;-86
2022/01/19 08:42:30;;;;;;;101.43;46.33;;;;;;;;;;5063015;28;20446;-87
2022/01/19 08:44:57;;;;;;;93.70;45.40;;;;;;;;;;5071347;28;20444;-85
2022/01/19 08:47:23;;;;;;;96.27;46.40;;;;;;;;;;5075539;28;20424;-86
2022/01/19 08:49:49;;;;;;;106.70;48.07;;;;;;;;;;5072183;28;20460;-86
2022/01/19 08:52:16;;;;;;;105.80;50.17;;;;;;;;;;5074644;28;20418;-86
2022/01/19 08:54:42;;;;;;;111.93;53.60;;;;;;;;;;5070446;28;20448;-85
2022/01/19 08:57:08;;;;;;;106.10;48.50;;;;;;;;;;5071200;28;20422;-86
2022/01/19 08:59:36;;;;;;;109.50;51.67;;;;;;;;;;5067955;28;20414;-86
2022/01/19 09:02:02;;;;;;;103.40;50.17;;;;;;;;;;5072841;28;20435;-86
2022/01/19 09:04:28;;;;;;;113.13;52.97;;;;;;;;;;5070744;28;20414;-86
2022/01/19 09:06:55;;;;;;;110.33;52.90;;;;;;;;;;5074244;28;20491;-85
2022/01/19 09:09:21;;;;;;;113.47;53.00;;;;;;;;;;5074962;28;20416;-86
2022/01/19 09:11:47;;;;;;;125.60;54.57;;;;;;;;;;5075874;28;20413;-86
2022/01/19 09:14:13;;;;;;;131.17;57.50;;;;;;;;;;5080131;28;20434;-85
2022/01/19 09:16:39;;;;;;;123.13;56.67;;;;;;;;;;5077261;28;21240;-86
2022/01/19 09:19:07;;;;;;;126.67;57.70;;;;;;;;;;5074624;28;20426;-86
2022/01/19 09:21:33;;;;;;;136.67;61.63;;;;;;;;;;5073629;28;20417;-87
2022/01/19 09:24:02;;;;;;;142.63;64.13;;;;;;;;;;5069993;28;20486;-87
2022/01/19 09:26:29;;;;;;;139.90;64.03;;;;;;;;;;5078388;28;20420;-87
2022/01/19 09:28:55;;;;;;;146.10;64.93;;;;;;;;;;5074788;28;20432;-87
2022/01/19 09:31:21;;;;;;;133.70;61.97;;;;;;;;;;5072740;28;21493;-87
2022/01/19 09:33:55;;;;;;;131.07;63.17;;;;;;;;;;5073220;28;21025;-87
2022/01/19 09:36:32;;;;;;;122.33;60.43;;;;;;;;;;5074645;28;20488;-87
2022/01/19 09:38:58;;;;;;;135.77;62.43;;;;;;;;;;5070962;28;20422;-86
2022/01/19 09:41:25;;;;;;;132.70;64.33;;;;;;;;;;5074201;28;20420;-87
2022/01/19 09:43:51;;;;;;;134.53;63.27;;;;;;;;;;5073603;28;20414;-86
2022/01/19 09:46:17;;;;;;;126.50;61.63;;;;;;;;;;5070875;28;20420;-86
2022/01/19 09:48:43;;;;;;;137.70;61.90;;;;;;;;;;5077461;28;20428;-86
2022/01/19 09:51:10;;;;;;;138.33;62.37;;;;;;;;;;5074170;28;20445;-86
2022/01/19 09:53:36;;;;;;;134.53;63.40;;;;;;;;;;5074266;28;20421;-86
2022/01/19 09:56:03;;;;;;;135.40;65.20;;;;;;;;;;5075054;28;20456;-86
2022/01/19 09:58:29;;;;;;;128.90;61.30;;;;;;;;;;5077344;28;20427;-86
2022/01/19 10:00:57;;;;;;;134.83;64.23;;;;;;;;;;5077254;28;20964;-86
2022/01/19 10:03:28;;;;;;;142.53;66.47;;;;;;;;;;5073883;28;20449;-85
2022/01/19 10:05:57;;;;;;;123.00;62.23;;;;;;;;;;5078729;28;20428;-84
2022/01/19 10:08:50;;;;;;;128.77;62.00;;;;;;;;;;5072502;28;20433;-84
2022/01/19 10:17:00;;;;;;;134.60;65.17;;;;;;;;;;5073389;28;20582;-85
2022/01/19 10:19:35;;;;;;;132.80;65.17;;;;;;;;;;5070897;28;20410;-85
2022/01/19 10:22:12;;;;;;;131.70;64.43;;;;;;;;;;5073377;28;20455;-83
2022/01/19 10:24:41;;;;;;;136.07;64.83;;;;;;;;;;5074773;28;20431;-84
2022/01/19 10:27:22;;;;;;;137.13;65.63;;;;;;;;;;5072892;28;20420;-84
2022/01/19 10:29:53;;;;;;;138.73;67.00;;;;;;;;;;5069469;28;20453;-85
2022/01/19 10:32:20;;;;;;;125.00;64.20;;;;;;;;;;5077073;28;20594;-84
2022/01/19 10:34:46;;;;;;;123.60;63.60;;;;;;;;;;5074800;28;20452;-84
2022/01/19 10:37:12;;;;;;;125.23;63.93;;;;;;;;;;5076768;28;20416;-85
2022/01/19 10:39:43;;;;;;;128.00;62.67;;;;;;;;;;5074405;28;20446;-84
2022/01/19 10:42:16;;;;;;;127.63;64.50;;;;;;;;;;5076865;28;21443;-85
2022/01/19 10:44:50;;;;;;;126.13;63.97;;;;;;;;;;5075006;28;20416;-85
2022/01/19 10:47:17;;;;;;;126.30;61.63;;;;;;;;;;5077049;28;20405;-85
2022/01/19 10:49:54;;;;;;;123.37;62.50;;;;;;;;;;5073203;28;21272;-84
2022/01/19 10:52:27;;;;;;;114.23;59.90;;;;;;;;;;5068321;28;20503;-84
2022/01/19 10:54:53;;;;;;;123.70;61.10;;;;;;;;;;5074727;28;20448;-84
2022/01/19 10:57:19;;;;;;;113.90;59.13;;;;;;;;;;5068802;28;20524;-84
2022/01/19 10:59:45;;;;;;;118.73;59.87;;;;;;;;;;5071948;28;20425;-84
2022/01/19 11:02:12;;;;;;;124.13;61.83;;;;;;;;;;5073743;28;21154;-84
2022/01/19 11:04:40;;;;;;;121.37;61.37;;;;;;;;;;5073223;28;20408;-84
2022/01/19 11:07:11;;;;;;;122.70;62.13;;;;;;;;;;5070583;28;20418;-84
2022/01/19 11:09:46;;;;;;;112.17;60.20;;;;;;;;;;5069980;28;20425;-84
2022/01/19 11:12:15;;;;;;;120.67;61.83;;;;;;;;;;5072712;28;21174;-84
2022/01/19 11:14:41;;;;;;;118.93;62.13;;;;;;;;;;5075854;28;20446;-84
2022/01/19 11:17:09;;;;;;;117.20;59.77;;;;;;;;;;5070495;28;20536;-84
2022/01/19 11:19:39;;;;;;;121.77;62.80;;;;;;;;;;5069065;28;21146;-84
2022/01/19 11:22:24;;;;;;;119.40;61.70;;;;;;;;;;5072013;28;20475;-84
2022/01/19 11:25:10;;;;;;;116.80;60.03;;;;;;;;;;5070497;28;20461;-84
2022/01/19 11:27:40;;;;;;;121.77;62.03;;;;;;;;;;5073377;28;20421;-84
2022/01/19 11:30:25;;;;;;;110.63;58.43;;;;;;;;;;5075308;28;20425;-84
2022/01/19 11:33:10;;;;;;;115.03;60.47;;;;;;;;;;5073152;28;20424;-85
2022/01/19 11:35:36;;;;;;;118.13;60.67;;;;;;;;;;5072043;28;20468;-85
2022/01/19 11:38:22;;;;;;;123.00;60.20;;;;;;;;;;5070883;28;20531;-85
2022/01/19 11:40:48;;;;;;;116.83;61.00;;;;;;;;;;5070768;28;20432;-85
2022/01/19 11:43:19;;;;;;;117.00;62.73;;;;;;;;;;5072588;28;20975;-84
2022/01/19 11:45:45;;;;;;;119.63;64.63;;;;;;;;;;5069112;28;20424;-83
2022/01/19 11:48:16;;;;;;;119.03;63.10;;;;;;;;;;5070386;28;21318;-84
2022/01/19 11:50:42;;;;;;;124.40;65.60;;;;;;;;;;5074281;28;20578;-85
2022/01/19 11:53:10;;;;;;;115.07;61.23;;;;;;;;;;5069540;28;20429;-86
2022/01/19 11:55:37;;;;;;;115.53;64.00;;;;;;;;;;5069411;28;20460;-86
2022/01/19 11:58:19;;;;;;;120.73;64.10;;;;;;;;;;5068679;28;20429;-86
2022/01/19 12:00:46;;;;;;;114.13;63.97;;;;;;;;;;5065971;28;20454;-86
2022/01/19 12:03:21;;;;;;;109.70;60.17;;;;;;;;;;5071444;28;20430;-86
2022/01/19 12:05:50;;;;;;;113.57;64.73;;;;;;;;;;5069661;28;20428;-86
2022/01/19 12:08:24;;;;;;;112.07;61.20;;;;;;;;;;5065915;28;20445;-85
2022/01/19 12:10:51;;;;;;;110.40;57.63;;;;;;;;;;5067810;28;20420;-84
2022/01/19 12:16:19;;;;;;;104.67;58.13;;;;;;;;;;5069366;28;21312;-84
2022/01/19 12:18:53;;;;;;;113.77;59.70;;;;;;;;;;5067438;28;20421;-84
2022/01/19 12:21:22;;;;;;;112.37;56.87;;;;;;;;;;5073530;28;21229;-84
2022/01/19 12:23:49;;;;;;;101.23;55.13;;;;;;;;;;5069793;28;21686;-84
2022/01/19 12:26:15;;;;;;;101.03;53.97;;;;;;;;;;5067465;28;20421;-84
2022/01/19 12:28:41;;;;;;;88.50;48.50;;;;;;;;;;5069788;28;20460;-84
2022/01/19 12:31:20;;;;;;;88.83;47.47;;;;;;;;;;5071066;28;20516;-84
2022/01/19 12:34:04;;;;;;;90.37;47.67;;;;;;;;;;5066753;28;20429;-84
2022/01/19 12:36:49;;;;;;;92.93;48.37;;;;;;;;;;5072740;28;20494;-84
2022/01/19 12:39:28;;;;;;;90.63;48.20;;;;;;;;;;5068359;28;20405;-85
2022/01/19 12:42:13;;;;;;;87.87;46.20;;;;;;;;;;5076449;28;20771;-84
2022/01/19 12:44:45;;;;;;;83.03;46.00;;;;;;;;;;5071265;28;21397;-84
2022/01/19 12:50:18;;;;;;;89.53;46.97;;;;;;;;;;5072565;28;21226;-84
2022/01/19 12:52:44;;;;;;;92.60;48.90;;;;;;;;;;5068141;28;20493;-84
2022/01/19 12:55:11;;;;;;;84.33;45.47;;;;;;;;;;5071345;28;20571;-84
2022/01/19 12:57:37;;;;;;;89.97;46.70;;;;;;;;;;5072095;28;20413;-85
2022/01/19 13:00:04;;;;;;;90.40;47.37;;;;;;;;;;5070810;28;20421;-84
2022/01/19 13:02:30;;;;;;;83.33;43.47;;;;;;;;;;5074519;28;20447;-84
2022/01/19 13:05:08;;;;;;;85.27;44.03;;;;;;;;;;5071642;28;20432;-84
2022/01/19 13:07:38;;;;;;;95.77;45.23;;;;;;;;;;5070504;28;20441;-85
2022/01/19 13:12:39;;;;;;;80.87;45.37;;;;;;;;;;5073186;28;20429;-84
2022/01/19 13:15:06;;;;;;;87.93;46.60;;;;;;;;;;5089325;28;20453;-84
2022/01/19 13:17:41;;;;;;;84.67;45.13;;;;;;;;;;5082181;28;20466;-85
2022/01/19 13:20:08;;;;;;;86.10;45.83;;;;;;;;;;5074292;28;21208;-85
2022/01/19 13:22:43;;;;;;;87.60;44.80;;;;;;;;;;5069783;28;20474;-85
2022/01/19 13:25:22;;;;;;;86.73;45.90;;;;;;;;;;5075211;28;20423;-85
2022/01/19 13:27:49;;;;;;;82.33;44.97;;;;;;;;;;5071140;28;20419;-85
2022/01/19 13:30:16;;;;;;;87.13;44.30;;;;;;;;;;5073647;28;20592;-85
2022/01/19 13:32:42;;;;;;;85.87;45.53;;;;;;;;;;5069181;28;20428;-84
2022/01/19 13:35:10;;;;;;;83.97;45.97;;;;;;;;;;5068696;28;21344;-84
2022/01/19 13:37:48;;;;;;;86.67;43.87;;;;;;;;;;5067705;28;20541;-84
2022/01/19 13:40:20;;;;;;;86.03;44.73;;;;;;;;;;5068295;28;20431;-84
2022/01/19 13:42:48;;;;;;;81.43;43.67;;;;;;;;;;5070637;28;20425;-85
2022/01/19 13:45:27;;;;;;;87.70;46.43;;;;;;;;;;5067759;28;20416;-84
2022/01/19 13:48:04;;;;;;;91.43;45.70;;;;;;;;;;5072615;28;20409;-84
2022/01/19 13:50:30;;;;;;;89.23;46.47;;;;;;;;;;5069915;28;20498;-84
2022/01/19 13:52:57;;;;;;;84.53;46.07;;;;;;;;;;5071577;28;20417;-84
2022/01/19 13:55:24;;;;;;;84.73;47.77;;;;;;;;;;5075738;28;20448;-84
2022/01/19 13:57:50;;;;;;;94.00;49.10;;;;;;;;;;5069568;28;20420;-84
2022/01/19 14:00:20;;;;;;;90.07;48.53;;;;;;;;;;5073169;28;20422;-85
2022/01/19 14:02:56;;;;;;;82.97;46.07;;;;;;;;;;5073166;28;20458;-84
2022/01/19 14:05:34;;;;;;;92.83;48.67;;;;;;;;;;5058836;28;20420;-84
2022/01/19 14:08:00;;;;;;;86.57;46.83;;;;;;;;;;5067413;28;20892;-85
2022/01/19 14:10:26;;;;;;;88.17;47.37;;;;;;;;;;5075463;28;20562;-85
2022/01/19 14:12:53;;;;;;;85.70;45.47;;;;;;;;;;5071614;28;21147;-85
2022/01/19 14:15:26;;;;;;;88.00;47.03;;;;;;;;;;5074350;28;20789;-85
2022/01/19 14:17:53;;;;;;;91.53;47.60;;;;;;;;;;5074811;28;20495;-85
2022/01/19 14:20:21;;;;;;;91.53;50.17;;;;;;;;;;5074974;28;21122;-84
2022/01/19 14:22:48;;;;;;;86.23;48.03;;;;;;;;;;5071692;28;20479;-85
2022/01/19 14:25:18;;;;;;;91.87;48.40;;;;;;;;;;5068452;28;20414;-85
2022/01/19 14:27:44;;;;;;;91.60;49.27;;;;;;;;;;5073746;28;20491;-85
2022/01/19 14:30:11;;;;;;;90.37;49.50;;;;;;;;;;5068244;28;21018;-84
2022/01/19 14:32:45;;;;;;;96.60;51.80;;;;;;;;;;5073831;28;20425;-85
2022/01/19 14:35:31;;;;;;;98.30;52.93;;;;;;;;;;5072325;28;20509;-85
2022/01/19 14:38:06;;;;;;;96.17;51.00;;;;;;;;;;5053448;28;20515;-84
2022/01/19 14:40:34;;;;;;;100.20;52.60;;;;;;;;;;5074957;28;20411;-85
2022/01/19 14:43:00;;;;;;;93.27;50.87;;;;;;;;;;5074511;28;20424;-85
2022/01/19 14:45:35;;;;;;;103.97;52.93;;;;;;;;;;5074034;28;20852;-84
2022/01/19 14:48:11;;;;;;;95.30;51.57;;;;;;;;;;5063875;28;20415;-85
2022/01/19 14:50:41;;;;;;;97.13;52.53;;;;;;;;;;5070607;28;20417;-85
2022/01/19 14:53:07;;;;;;;90.03;50.07;;;;;;;;;;5072197;28;20953;-84
2022/01/19 14:55:35;;;;;;;97.83;53.30;;;;;;;;;;5072930;28;21332;-84
2022/01/19 14:58:02;;;;;;;92.23;50.73;;;;;;;;;;5069643;28;20423;-85
2022/01/19 15:00:29;;;;;;;95.07;52.27;;;;;;;;;;5071096;28;20418;-84
2022/01/19 15:02:59;;;;;;;100.23;52.03;;;;;;;;;;5075372;28;20924;-84
2022/01/19 15:05:26;;;;;;;94.90;53.03;;;;;;;;;;5077039;28;20457;-85
2022/01/19 15:07:52;;;;;;;96.17;52.73;;;;;;;;;;5075969;28;20505;-85
2022/01/19 15:10:18;;;;;;;97.37;53.33;;;;;;;;;;5074788;28;21293;-85
2022/01/19 15:12:45;;;;;;;100.17;52.77;;;;;;;;;;5072730;28;20458;-84
2022/01/19 15:15:12;;;;;;;98.63;53.53;;;;;;;;;;5071991;28;20444;-84
2022/01/19 15:17:41;;;;;;;97.93;52.40;;;;;;;;;;5065873;28;21367;-83
2022/01/19 15:20:08;;;;;;;95.10;51.60;;;;;;;;;;5073457;28;21299;-86
2022/01/19 15:22:34;;;;;;;98.70;52.77;;;;;;;;;;5074585;28;20498;-85
2022/01/19 15:25:01;;;;;;;95.23;53.47;;;;;;;;;;5075815;28;20936;-85
2022/01/19 15:27:27;;;;;;;99.87;55.07;;;;;;;;;;5072087;28;20423;-85
2022/01/19 15:29:53;;;;;;;101.83;54.60;;;;;;;;;;5070312;28;20448;-84
2022/01/19 15:32:20;;;;;;;98.77;55.73;;;;;;;;;;5070899;28;20447;-85
2022/01/19 15:34:46;;;;;;;93.27;53.07;;;;;;;;;;5070925;28;20425;-85
2022/01/19 15:37:12;;;;;;;99.97;55.57;;;;;;;;;;5072467;28;20425;-85
2022/01/19 15:39:40;;;;;;;97.13;54.97;;;;;;;;;;5070755;28;20413;-85
2022/01/19 15:42:06;;;;;;;96.27;54.37;;;;;;;;;;5069667;28;20779;-85
2022/01/19 15:44:32;;;;;;;97.33;53.47;;;;;;;;;;5070743;28;20407;-85
2022/01/19 15:47:02;;;;;;;106.17;55.63;;;;;;;;;;5071559;28;20452;-85
2022/01/19 15:49:28;;;;;;;108.13;57.60;;;;;;;;;;5071683;28;20424;-86